Lebanon, Oregon
Current Conditions -  °F | °C
As of 6:35 AM on Sunday 23 Nov 2014 (Local Time) from KCVO Reporting Station
Overcast Overcast  
Wind Chill: 42°   Ceiling: 3300
Heat Index: 46°   Visibility: 10mi
Dew Point: 43°   Wind: 9mph
Humidity: 87%   Direction: 190°S
Pressure: 30.34"   Gusts: NA
Location:  44.54°N, 122.9°W
Report Text: KCVO 231435Z AUTO 19008KT 10SM BKN033 OVC040 08/06 A3034 RMK AO1
Loading
Personal Weather Stations






























Interactive Weather Map New forecast layout! Learn more

10-Day Weather Forecast

Advertisements
Track Severe Weather on mobile